Time;durP1;ratioP1;P1;durP2;ratioP2;P2;SDS_P1;SDS_P2;PMS_P1;PMS_P2;Temp;Humidity;BMP_temperature;BMP_pressure;BME280_temperature;BME280_humidity;BME280_pressure;Samples;Min_cycle;Max_cycle;Signal;HPM_P1;HPM_P2
2021/12/23 00:02:01;;;;;;;29.25;16.75;;;;;;;-2.03;93.28;101610.22;5096846;28;20055;-73
2021/12/23 00:04:26;;;;;;;27.30;15.02;;;;;;;-2.01;92.95;101625.81;5096873;28;20032;-73
2021/12/23 00:06:51;;;;;;;28.13;14.73;;;;;;;-1.99;93.22;101621.34;5096799;28;20466;-73
2021/12/23 00:09:17;;;;;;;29.17;14.43;;;;;;;-2.03;92.72;101615.44;5096165;28;20032;-73
2021/12/23 00:11:43;;;;;;;27.27;14.20;;;;;;;-1.99;93.04;101616.94;5095350;28;20024;-73
2021/12/23 00:14:10;;;;;;;28.92;14.18;;;;;;;-1.99;92.42;101601.25;5096549;28;20036;-73
2021/12/23 00:16:43;;;;;;;26.67;13.90;;;;;;;-2.01;92.64;101602.28;5095311;28;20039;-73
2021/12/23 00:19:21;;;;;;;27.08;14.82;;;;;;;-2.05;92.18;101599.03;5096641;28;20085;-73
2021/12/23 00:24:32;;;;;;;24.55;12.48;;;;;;;-2.07;92.44;101568.69;5096467;28;20038;-73
2021/12/23 00:26:57;;;;;;;30.83;13.23;;;;;;;-2.03;92.26;101575.41;5096467;28;20035;-73
2021/12/23 00:29:23;;;;;;;23.58;12.60;;;;;;;-2.11;92.58;101559.38;5096406;28;20374;-73
2021/12/23 00:31:48;;;;;;;26.83;13.50;;;;;;;-2.09;92.46;101571.41;5095914;28;20028;-73
2021/12/23 00:34:14;;;;;;;28.67;12.07;;;;;;;-2.13;92.52;101572.53;5096036;28;20020;-73
2021/12/23 00:36:42;;;;;;;25.42;13.02;;;;;;;-2.12;92.39;101563.78;5094916;28;20085;-73
2021/12/23 00:39:09;;;;;;;28.00;14.45;;;;;;;-2.12;92.74;101544.63;5096174;28;20482;-73
2021/12/23 00:41:34;;;;;;;27.42;13.70;;;;;;;-2.12;92.79;101553.31;5096210;28;20028;-73
2021/12/23 00:43:59;;;;;;;26.38;14.35;;;;;;;-2.16;92.34;101546.59;5096144;28;20035;-73
2021/12/23 00:46:25;;;;;;;30.02;15.18;;;;;;;-2.11;92.70;101547.16;5096049;28;20039;-73
2021/12/23 00:48:51;;;;;;;27.75;16.27;;;;;;;-2.12;92.31;101545.47;5095662;28;20056;-73
2021/12/23 00:51:17;;;;;;;26.40;12.45;;;;;;;-2.13;92.27;101549.00;5096040;28;20089;-73
2021/12/23 00:53:45;;;;;;;27.75;14.13;;;;;;;-2.09;92.14;101562.75;5095962;28;20356;-73
2021/12/23 00:56:11;;;;;;;28.85;13.95;;;;;;;-2.09;92.13;101557.53;5095887;28;20085;-73
2021/12/23 00:58:37;;;;;;;27.92;14.70;;;;;;;-2.08;92.28;101552.19;5095586;28;20024;-73
2021/12/23 01:01:03;;;;;;;27.42;15.32;;;;;;;-2.07;92.48;101539.94;5095392;28;20111;-73
2021/12/23 01:03:29;;;;;;;27.52;15.20;;;;;;;-2.07;92.20;101538.19;5095415;28;20024;-72
2021/12/23 01:05:56;;;;;;;31.63;13.25;;;;;;;-2.03;91.62;101541.44;5095621;28;20024;-73
2021/12/23 01:08:21;;;;;;;25.38;14.10;;;;;;;-2.00;92.03;101543.84;5095159;28;20094;-73
2021/12/23 01:10:52;;;;;;;28.77;14.88;;;;;;;-2.00;91.95;101546.47;5095179;28;20573;-73
2021/12/23 01:13:19;;;;;;;27.92;13.60;;;;;;;-2.02;92.08;101533.50;5095504;28;20070;-73
2021/12/23 01:16:03;;;;;;;30.42;14.50;;;;;;;-2.00;91.45;101549.91;5094353;28;20039;-73
2021/12/23 01:18:42;;;;;;;34.75;14.07;;;;;;;-2.00;91.93;101560.38;5095501;28;20024;-73
2021/12/23 01:21:17;;;;;;;23.73;11.95;;;;;;;-2.00;91.86;101562.97;5095355;28;20023;-73
2021/12/23 01:23:51;;;;;;;26.35;14.02;;;;;;;-2.03;92.24;101550.09;5094800;28;20032;-73
2021/12/23 01:26:20;;;;;;;25.13;14.30;;;;;;;-2.04;91.62;101538.00;5095221;28;20102;-73
2021/12/23 01:28:57;;;;;;;33.28;16.02;;;;;;;-2.10;91.62;101532.31;5095163;28;20051;-73
2021/12/23 01:31:27;;;;;;;28.45;15.52;;;;;;;-2.02;91.33;101533.50;5095129;28;20395;-73
2021/12/23 01:33:52;;;;;;;29.20;14.40;;;;;;;-1.98;91.34;101526.31;5094373;28;20027;-73
2021/12/23 01:36:18;;;;;;;27.20;14.27;;;;;;;-1.94;91.91;101517.31;5095081;28;20467;-73
2021/12/23 01:38:44;;;;;;;27.30;13.88;;;;;;;-1.92;91.43;101518.06;5094725;28;20028;-73
2021/12/23 01:41:09;;;;;;;26.02;14.88;;;;;;;-1.91;91.30;101516.28;5094782;28;20028;-73
2021/12/23 01:43:35;;;;;;;27.48;13.38;;;;;;;-1.91;91.21;101508.44;5094901;28;20024;-73
2021/12/23 01:46:01;;;;;;;31.98;15.10;;;;;;;-1.90;91.19;101507.50;5094907;28;20024;-72
2021/12/23 01:48:26;;;;;;;28.05;13.80;;;;;;;-1.89;90.93;101517.84;5094889;28;20028;-73
2021/12/23 01:50:52;;;;;;;27.58;13.18;;;;;;;-1.88;90.90;101513.47;5093447;28;20052;-73
2021/12/23 01:53:18;;;;;;;25.10;13.77;;;;;;;-1.88;90.61;101511.69;5094696;28;20028;-73
2021/12/23 01:55:44;;;;;;;31.95;13.65;;;;;;;-1.89;90.35;101504.78;5093412;28;20028;-73
2021/12/23 01:58:11;;;;;;;27.00;13.60;;;;;;;-1.87;90.50;101502.91;5094629;28;20105;-73
2021/12/23 02:00:39;;;;;;;27.77;13.55;;;;;;;-1.87;90.15;101489.00;5094635;28;20028;-73
2021/12/23 02:03:05;;;;;;;31.88;15.82;;;;;;;-1.87;90.79;101484.59;5094283;28;20109;-73
2021/12/23 02:05:31;;;;;;;31.65;14.65;;;;;;;-1.87;90.33;101487.22;5094160;28;20489;-73
2021/12/23 02:07:58;;;;;;;26.52;13.27;;;;;;;-1.86;89.78;101494.16;5093173;28;20379;-73
2021/12/23 02:10:24;;;;;;;29.60;14.30;;;;;;;-1.89;89.74;101480.41;5094422;28;20058;-73
2021/12/23 02:12:50;;;;;;;27.33;14.48;;;;;;;-1.89;90.46;101470.78;5094132;28;20103;-73
2021/12/23 02:15:17;;;;;;;25.02;12.52;;;;;;;-1.91;89.71;101470.09;5094450;28;20406;-73
2021/12/23 02:17:43;;;;;;;29.83;14.25;;;;;;;-1.94;89.85;101467.63;5094296;28;20108;-73
2021/12/23 02:20:12;;;;;;;28.52;15.15;;;;;;;-2.02;89.80;101468.16;5092248;28;20039;-73
2021/12/23 02:22:39;;;;;;;29.05;15.07;;;;;;;-2.02;89.87;101467.31;5094137;28;20098;-73
2021/12/23 02:25:07;;;;;;;25.40;13.20;;;;;;;-2.04;90.14;101470.03;5093865;28;20466;-72
2021/12/23 02:27:33;;;;;;;30.15;14.65;;;;;;;-2.06;89.86;101468.47;5094018;28;20609;-72
2021/12/23 02:29:58;;;;;;;27.65;14.45;;;;;;;-2.13;90.13;101446.28;5094164;28;20115;-72
2021/12/23 02:32:23;;;;;;;31.17;15.48;;;;;;;-2.10;89.92;101441.69;5093994;28;20371;-72
2021/12/23 02:34:49;;;;;;;26.42;14.43;;;;;;;-2.13;90.13;101441.88;5093828;28;20102;-71
2021/12/23 02:37:14;;;;;;;27.33;15.48;;;;;;;-2.13;89.82;101441.03;5093547;28;20024;-72
2021/12/23 02:39:40;;;;;;;31.25;15.95;;;;;;;-2.19;90.08;101441.47;5093834;28;20024;-72
2021/12/23 02:42:06;;;;;;;28.48;14.73;;;;;;;-2.24;90.47;101449.59;5092322;28;20024;-72
2021/12/23 02:44:31;;;;;;;30.25;14.50;;;;;;;-2.21;90.39;101450.22;5093673;28;20049;-72
2021/12/23 02:46:57;;;;;;;29.40;15.88;;;;;;;-2.22;90.08;101453.78;5093742;28;20157;-72
2021/12/23 02:49:22;;;;;;;26.23;14.45;;;;;;;-2.23;90.69;101459.09;5093553;28;20065;-72
2021/12/23 02:51:48;;;;;;;41.42;16.00;;;;;;;-2.21;90.71;101462.44;5093498;28;20042;-72
2021/12/23 02:54:13;;;;;;;29.85;15.82;;;;;;;-2.24;90.97;101453.03;5093640;28;20165;-72
2021/12/23 02:56:39;;;;;;;27.42;15.00;;;;;;;-2.23;90.61;101459.09;5093585;28;20031;-72
2021/12/23 02:59:04;;;;;;;28.52;14.45;;;;;;;-2.27;90.50;101439.34;5092073;28;20111;-72
2021/12/23 03:01:30;;;;;;;29.55;15.48;;;;;;;-2.27;91.30;101442.78;5093454;28;20032;-72
2021/12/23 03:03:55;;;;;;;28.73;14.07;;;;;;;-2.37;91.00;101428.63;5093299;28;20398;-72
2021/12/23 03:06:22;;;;;;;30.75;16.77;;;;;;;-2.36;90.90;101422.47;5093197;28;20424;-72
2021/12/23 03:08:52;;;;;;;27.85;15.98;;;;;;;-2.41;91.13;101424.56;5093346;28;20028;-71
2021/12/23 03:11:21;;;;;;;28.30;16.40;;;;;;;-2.45;90.94;101416.06;5093263;28;20022;-72
2021/12/23 03:13:47;;;;;;;29.60;16.77;;;;;;;-2.46;91.04;101410.97;5093343;28;20371;-72
2021/12/23 03:16:14;;;;;;;30.67;15.88;;;;;;;-2.51;91.08;101410.41;5093400;28;20028;-72
2021/12/23 03:18:39;;;;;;;31.23;15.98;;;;;;;-2.54;91.48;101424.50;5093095;28;20034;-72
2021/12/23 03:21:06;;;;;;;26.98;14.48;;;;;;;-2.59;91.31;101423.97;5093254;28;20102;-72
2021/12/23 03:23:32;;;;;;;26.83;15.05;;;;;;;-2.63;91.19;101406.78;5093122;28;20036;-72
2021/12/23 03:25:58;;;;;;;31.08;16.38;;;;;;;-2.65;91.96;101411.28;5093204;28;20028;-72
2021/12/23 03:28:23;;;;;;;28.98;14.85;;;;;;;-2.69;91.96;101418.47;5091568;28;20453;-72
2021/12/23 03:30:49;;;;;;;26.60;14.77;;;;;;;-2.70;92.27;101415.94;5092663;28;20472;-72
2021/12/23 03:33:14;;;;;;;27.92;14.60;;;;;;;-2.77;92.09;101401.63;5092931;28;20028;-72
2021/12/23 03:35:40;;;;;;;34.95;15.77;;;;;;;-2.74;92.13;101401.44;5093072;28;20020;-72
2021/12/23 03:38:06;;;;;;;26.80;15.38;;;;;;;-2.74;92.17;101391.81;5092725;28;20478;-72
2021/12/23 03:40:32;;;;;;;25.42;13.68;;;;;;;-2.73;92.07;101374.38;5093167;28;20066;-72
2021/12/23 03:42:58;;;;;;;26.88;15.40;;;;;;;-2.77;91.69;101367.69;5093095;28;20055;-72
2021/12/23 03:45:23;;;;;;;30.20;15.75;;;;;;;-2.74;91.53;101383.16;5092998;28;20035;-72
2021/12/23 03:47:50;;;;;;;28.30;15.40;;;;;;;-2.78;91.79;101377.28;5093005;28;20020;-72
2021/12/23 03:50:21;;;;;;;27.38;15.02;;;;;;;-2.80;91.74;101376.56;5092823;28;20127;-72
2021/12/23 03:52:47;;;;;;;27.83;14.60;;;;;;;-2.83;92.30;101358.44;5092902;28;20065;-72
2021/12/23 03:55:13;;;;;;;30.75;13.55;;;;;;;-2.80;91.89;101350.44;5092927;28;21140;-72
2021/12/23 03:57:38;;;;;;;30.55;14.95;;;;;;;-2.82;92.18;101321.00;5092942;28;20066;-72
2021/12/23 04:00:07;;;;;;;29.08;14.45;;;;;;;-2.79;91.98;101318.19;5092934;28;20052;-72
2021/12/23 04:02:33;;;;;;;25.30;13.82;;;;;;;-2.79;91.88;101312.97;5092700;28;20039;-72
2021/12/23 04:04:58;;;;;;;27.27;13.48;;;;;;;-2.76;92.24;101323.19;5092707;28;20028;-72
2021/12/23 04:07:23;;;;;;;25.80;13.63;;;;;;;-2.72;92.35;101314.25;5092863;28;20470;-72
2021/12/23 04:09:49;;;;;;;31.23;15.00;;;;;;;-2.68;92.50;101307.03;5092664;28;20028;-72
2021/12/23 04:12:14;;;;;;;29.30;14.60;;;;;;;-2.63;92.62;101319.81;5092708;28;20032;-72
2021/12/23 04:14:39;;;;;;;34.47;15.52;;;;;;;-2.60;92.12;101332.66;5092674;28;20076;-72
2021/12/23 04:17:05;;;;;;;27.30;14.38;;;;;;;-2.59;91.77;101323.88;5092709;28;20024;-72
2021/12/23 04:19:32;;;;;;;29.77;15.38;;;;;;;-2.61;92.48;101299.66;5092692;28;20036;-72
2021/12/23 04:21:58;;;;;;;30.35;15.18;;;;;;;-2.63;92.35;101310.19;5092726;28;20039;-72
2021/12/23 04:24:24;;;;;;;27.00;15.35;;;;;;;-2.63;92.80;101311.97;5092545;28;20024;-72
2021/12/23 04:26:49;;;;;;;28.17;14.25;;;;;;;-2.63;92.82;101304.97;5092661;28;20066;-72
2021/12/23 04:29:15;;;;;;;33.42;18.48;;;;;;;-2.62;92.57;101306.66;5092612;28;20032;-72
2021/12/23 04:31:40;;;;;;;30.17;14.77;;;;;;;-2.54;92.85;101319.19;5092525;28;20425;-72
2021/12/23 04:34:05;;;;;;;26.55;14.73;;;;;;;-2.52;92.79;101305.09;5092492;28;20042;-72
2021/12/23 04:36:31;;;;;;;30.77;15.23;;;;;;;-2.51;92.96;101295.50;5092535;28;20059;-72
2021/12/23 04:38:58;;;;;;;33.38;14.98;;;;;;;-2.49;93.32;101310.16;5092491;28;20028;-72
2021/12/23 04:41:25;;;;;;;29.35;13.60;;;;;;;-2.48;93.04;101300.53;5091236;28;20030;-72
2021/12/23 04:43:50;;;;;;;26.23;14.75;;;;;;;-2.49;92.79;101304.91;5093954;28;20423;-72
2021/12/23 04:46:15;;;;;;;28.38;15.60;;;;;;;-2.49;92.70;101298.84;5094849;28;20028;-72
2021/12/23 04:48:41;;;;;;;30.67;15.43;;;;;;;-2.47;93.16;101273.47;5096083;28;20028;-72
2021/12/23 04:51:06;;;;;;;31.75;15.25;;;;;;;-2.45;92.76;101269.81;5095914;28;20040;-72
2021/12/23 04:53:32;;;;;;;29.83;15.98;;;;;;;-2.42;92.45;101280.06;5095998;28;20028;-72
2021/12/23 04:55:58;;;;;;;29.92;15.88;;;;;;;-2.47;92.94;101269.06;5094678;28;20016;-72
2021/12/23 04:58:24;;;;;;;28.23;14.68;;;;;;;-2.39;92.85;101281.63;5095845;28;20482;-72
2021/12/23 05:00:51;;;;;;;30.27;15.55;;;;;;;-2.36;92.77;101291.03;5095853;28;20031;-72
2021/12/23 05:03:18;;;;;;;31.65;18.67;;;;;;;-2.34;92.84;101283.94;5095557;28;20039;-72
2021/12/23 05:05:45;;;;;;;29.58;14.98;;;;;;;-2.32;93.10;101277.66;5095781;28;20032;-72
2021/12/23 05:08:11;;;;;;;32.20;16.25;;;;;;;-2.29;92.82;101260.94;5095671;28;20028;-72
2021/12/23 05:10:37;;;;;;;30.60;16.40;;;;;;;-2.27;92.23;101256.47;5095496;28;20028;-72
2021/12/23 05:13:03;;;;;;;39.92;17.58;;;;;;;-2.22;92.61;101257.81;5095531;28;20043;-72
2021/12/23 05:15:29;;;;;;;29.88;14.60;;;;;;;-2.19;92.17;101248.13;5095378;28;20025;-72
2021/12/23 05:17:55;;;;;;;30.70;16.42;;;;;;;-2.13;92.78;101245.06;5095537;28;20031;-72
2021/12/23 05:20:20;;;;;;;26.08;13.90;;;;;;;-2.11;92.94;101253.66;5095469;28;20020;-72
2021/12/23 05:22:49;;;;;;;31.15;17.65;;;;;;;-2.12;92.38;101247.59;5093858;28;20036;-72
2021/12/23 05:25:16;;;;;;;30.33;17.30;;;;;;;-2.10;92.26;101239.63;5095098;28;20078;-72
2021/12/23 05:27:41;;;;;;;30.80;15.90;;;;;;;-2.02;92.58;101258.22;5095093;28;20027;-72
2021/12/23 05:30:11;;;;;;;28.88;14.50;;;;;;;-2.01;92.23;101241.63;5094295;28;20562;-72
2021/12/23 05:32:36;;;;;;;29.17;16.77;;;;;;;-1.99;92.44;101240.59;5094728;28;20041;-72
2021/12/23 05:35:03;;;;;;;27.65;15.02;;;;;;;-1.96;92.31;101241.31;5094167;28;20360;-72
2021/12/23 05:37:28;;;;;;;27.13;14.93;;;;;;;-1.94;92.25;101234.19;5094841;28;20028;-72
2021/12/23 05:39:54;;;;;;;27.25;15.20;;;;;;;-1.91;92.64;101239.19;5094641;28;20035;-72
2021/12/23 05:42:19;;;;;;;29.60;16.33;;;;;;;-1.94;92.20;101237.63;5095017;28;20081;-72
2021/12/23 05:44:44;;;;;;;29.67;16.98;;;;;;;-1.92;92.92;101240.97;5094366;28;20498;-72
2021/12/23 05:47:10;;;;;;;32.28;15.40;;;;;;;-1.86;92.32;101227.50;5094945;28;20522;-72
2021/12/23 05:49:36;;;;;;;32.05;15.55;;;;;;;-1.85;92.61;101228.34;5092125;28;20102;-72
2021/12/23 05:52:02;;;;;;;31.08;15.73;;;;;;;-1.83;92.58;101218.63;5071615;28;20084;-72
2021/12/23 05:54:28;;;;;;;31.80;15.18;;;;;;;-1.84;92.31;101217.75;5071503;28;20125;-72
2021/12/23 05:56:53;;;;;;;30.80;17.08;;;;;;;-1.85;92.21;101217.88;5072237;28;20503;-72
2021/12/23 05:59:18;;;;;;;33.50;18.10;;;;;;;-1.89;91.70;101208.56;5086114;28;20036;-72
2021/12/23 06:01:44;;;;;;;32.35;16.55;;;;;;;-1.93;91.95;101213.19;5074090;28;20024;-73
2021/12/23 06:04:09;;;;;;;30.42;15.52;;;;;;;-1.94;92.05;101218.50;5090779;28;20037;-72
2021/12/23 06:06:35;;;;;;;33.10;18.23;;;;;;;-1.97;92.55;101216.94;5089638;28;20114;-72
2021/12/23 06:09:00;;;;;;;32.45;16.15;;;;;;;-2.01;92.34;101225.94;5090573;28;20023;-73
2021/12/23 06:11:27;;;;;;;35.50;17.10;;;;;;;-2.05;92.20;101220.06;5077695;28;20502;-73
2021/12/23 06:13:52;;;;;;;32.88;16.67;;;;;;;-2.02;92.48;101234.72;5091469;28;20024;-73
2021/12/23 06:16:18;;;;;;;29.00;16.30;;;;;;;-2.03;92.33;101233.88;5094284;28;20085;-73
2021/12/23 06:18:43;;;;;;;32.33;16.58;;;;;;;-2.07;92.74;101218.50;5094274;28;20032;-74
2021/12/23 06:21:09;;;;;;;31.92;16.23;;;;;;;-2.07;92.41;101223.75;5092895;28;20031;-72
2021/12/23 06:23:35;;;;;;;29.95;15.80;;;;;;;-2.08;92.97;101222.91;5093721;28;20032;-72
2021/12/23 06:26:00;;;;;;;32.05;15.43;;;;;;;-2.06;92.50;101213.19;5094217;28;20032;-72
2021/12/23 06:28:26;;;;;;;36.63;17.23;;;;;;;-2.04;92.72;101207.88;5094177;28;20364;-73
2021/12/23 06:30:51;;;;;;;32.38;17.38;;;;;;;-2.06;92.77;101188.84;5093896;28;20020;-73
2021/12/23 06:33:16;;;;;;;29.80;16.08;;;;;;;-1.99;92.75;101188.31;5092745;28;20032;-73
2021/12/23 06:35:42;;;;;;;34.13;17.60;;;;;;;-2.01;92.41;101174.50;5094009;28;20422;-72
2021/12/23 06:38:10;;;;;;;30.38;17.23;;;;;;;-1.94;92.44;101180.13;5093952;28;20032;-73
2021/12/23 06:40:36;;;;;;;32.53;18.48;;;;;;;-1.95;92.29;101178.47;5093679;28;20023;-73
2021/12/23 06:43:02;;;;;;;31.20;15.70;;;;;;;-1.92;92.57;101185.25;5093698;28;20039;-73
2021/12/23 06:45:28;;;;;;;27.35;14.55;;;;;;;-1.92;92.56;101178.25;5093407;28;20485;-74
2021/12/23 06:47:53;;;;;;;33.38;16.42;;;;;;;-1.95;92.16;101177.63;5092443;28;20059;-74
2021/12/23 06:50:20;;;;;;;31.02;16.10;;;;;;;-2.00;92.30;101164.88;5089027;28;20056;-75
2021/12/23 06:52:47;;;;;;;35.97;17.70;;;;;;;-2.00;92.26;101163.09;5088694;28;20012;-74
2021/12/23 06:55:13;;;;;;;32.85;16.80;;;;;;;-2.04;92.80;101150.38;5089223;28;20032;-71
2021/12/23 06:57:40;;;;;;;30.83;18.42;;;;;;;-1.96;92.47;101155.91;5089680;28;20023;-71
2021/12/23 07:00:09;;;;;;;33.13;16.23;;;;;;;-1.95;92.61;101152.34;5089514;28;20047;-70
2021/12/23 07:02:38;;;;;;;30.63;18.08;;;;;;;-1.90;92.57;101150.22;5087792;28;20031;-72
2021/12/23 07:05:04;;;;;;;36.80;19.70;;;;;;;-1.85;92.63;101158.59;5089100;28;20032;-72
2021/12/23 07:07:40;;;;;;;33.67;18.15;;;;;;;-1.80;92.85;101177.41;5088798;28;20016;-71
2021/12/23 07:10:07;;;;;;;34.47;18.02;;;;;;;-1.75;92.32;101178.84;5088991;28;20062;-74
2021/12/23 07:12:32;;;;;;;32.95;17.10;;;;;;;-1.82;92.76;101170.59;5089363;28;20031;-71
2021/12/23 07:14:58;;;;;;;30.33;14.80;;;;;;;-1.73;92.59;101176.94;5088980;28;20016;-72
2021/12/23 07:17:23;;;;;;;35.63;17.40;;;;;;;-1.68;92.08;101177.47;5089071;28;20120;-72
2021/12/23 07:19:49;;;;;;;33.35;16.30;;;;;;;-1.73;92.33;101159.47;5088916;28;20027;-71
2021/12/23 07:22:14;;;;;;;35.90;17.42;;;;;;;-1.64;92.06;101177.13;5089089;28;20028;-70
2021/12/23 07:24:41;;;;;;;28.17;15.90;;;;;;;-1.67;91.84;101166.06;5087369;28;20105;-73
2021/12/23 07:27:07;;;;;;;32.90;18.02;;;;;;;-1.65;92.31;101159.78;5088901;28;20652;-71
2021/12/23 07:29:32;;;;;;;37.60;17.75;;;;;;;-1.57;92.10;101177.56;5086381;28;20102;-73
2021/12/23 07:31:58;;;;;;;30.33;17.42;;;;;;;-1.58;92.21;101173.25;5074240;28;20032;-71
2021/12/23 07:34:24;;;;;;;31.02;16.13;;;;;;;-1.56;92.14;101187.06;5073046;28;20028;-72
2021/12/23 07:36:49;;;;;;;32.30;16.75;;;;;;;-1.53;92.15;101176.38;5073360;28;20024;-72
2021/12/23 07:39:15;;;;;;;31.15;15.57;;;;;;;-1.51;92.00;101171.88;5074194;28;20028;-70
2021/12/23 07:41:40;;;;;;;44.90;22.35;;;;;;;-1.50;91.90;101181.38;5072956;28;20077;-70
2021/12/23 07:44:07;;;;;;;29.92;15.98;;;;;;;-1.49;91.96;101180.44;5073075;28;20056;-70
2021/12/23 07:46:37;;;;;;;36.35;18.58;;;;;;;-1.50;92.02;101168.28;5074273;28;20036;-70
2021/12/23 07:49:03;;;;;;;31.95;18.95;;;;;;;-1.45;91.96;101167.97;5075149;28;21271;-71
2021/12/23 07:51:29;;;;;;;30.95;17.92;;;;;;;-1.43;91.88;101177.38;5072933;28;20166;-70
2021/12/23 07:53:55;;;;;;;33.08;16.63;;;;;;;-1.46;92.47;101177.59;5072955;28;20016;-70
2021/12/23 07:56:22;;;;;;;32.13;17.23;;;;;;;-1.44;92.27;101174.84;5074400;28;20035;-71
2021/12/23 07:58:47;;;;;;;31.90;15.20;;;;;;;-1.41;92.22;101175.50;5073755;28;20078;-73
2021/12/23 08:01:13;;;;;;;30.02;17.08;;;;;;;-1.35;92.39;101176.81;5073429;28;20421;-73
2021/12/23 08:03:38;;;;;;;34.00;14.98;;;;;;;-1.33;92.27;101161.84;5074015;28;20036;-72
2021/12/23 08:06:04;;;;;;;31.83;16.45;;;;;;;-1.32;92.21;101160.91;5073262;28;20040;-71
2021/12/23 08:08:30;;;;;;;32.25;17.38;;;;;;;-1.29;92.12;101168.50;5073723;28;20028;-70
2021/12/23 08:10:56;;;;;;;31.92;18.27;;;;;;;-1.33;91.76;101157.44;5072932;28;20061;-74
2021/12/23 08:13:21;;;;;;;32.17;17.33;;;;;;;-1.26;91.81;101159.59;5072961;28;20107;-73
2021/12/23 08:15:47;;;;;;;31.55;16.20;;;;;;;-1.25;91.95;101156.91;5056483;28;20119;-72
2021/12/23 08:18:13;;;;;;;31.25;16.65;;;;;;;-1.22;91.98;101166.28;5074006;28;20028;-73
2021/12/23 08:20:39;;;;;;;29.58;15.02;;;;;;;-1.21;91.52;101157.50;5076839;28;20095;-73
2021/12/23 08:23:04;;;;;;;30.52;16.40;;;;;;;-1.21;91.55;101154.88;5076952;28;20170;-72
2021/12/23 08:25:29;;;;;;;38.70;17.67;;;;;;;-1.18;91.69;101158.13;5075991;28;21469;-72
2021/12/23 08:27:55;;;;;;;44.13;17.42;;;;;;;-1.16;91.70;101158.00;5077401;28;20162;-72
2021/12/23 08:30:21;;;;;;;34.35;17.73;;;;;;;-1.13;91.69;101157.75;5076518;28;20056;-71
2021/12/23 08:32:48;;;;;;;32.85;15.98;;;;;;;-1.09;91.93;101155.78;5091765;28;20068;-72
2021/12/23 08:35:14;;;;;;;31.02;16.35;;;;;;;-1.09;91.47;101151.38;5091586;28;20370;-71
2021/12/23 08:37:40;;;;;;;31.58;16.83;;;;;;;-1.05;91.56;101147.53;5092286;28;20043;-72
2021/12/23 08:40:08;;;;;;;29.58;15.85;;;;;;;-1.03;91.36;101150.91;5091823;28;20463;-72
2021/12/23 08:42:33;;;;;;;32.67;15.98;;;;;;;-1.03;90.96;101143.03;5091783;28;20038;-71
2021/12/23 08:44:59;;;;;;;33.20;16.20;;;;;;;-1.01;90.95;101137.72;5091323;28;20357;-72
2021/12/23 08:47:25;;;;;;;32.38;16.92;;;;;;;-1.02;91.01;101133.41;5089155;28;20371;-71
2021/12/23 08:49:50;;;;;;;31.73;16.92;;;;;;;-1.03;90.76;101127.34;5090349;28;20088;-71
2021/12/23 08:52:16;;;;;;;33.28;16.95;;;;;;;-0.97;91.08;101129.50;5090649;28;20561;-71
2021/12/23 08:54:42;;;;;;;31.92;17.38;;;;;;;-0.95;91.25;101114.50;5091691;28;20028;-72
2021/12/23 08:57:09;;;;;;;34.10;16.20;;;;;;;-0.94;90.95;101104.88;5091516;28;20165;-71
2021/12/23 08:59:34;;;;;;;34.63;17.77;;;;;;;-0.94;90.81;101094.41;5091963;28;20054;-71
2021/12/23 09:02:00;;;;;;;33.00;17.13;;;;;;;-0.90;90.99;101094.03;5090294;28;20048;-72
2021/12/23 09:04:25;;;;;;;31.65;14.57;;;;;;;-0.85;90.95;101095.50;5090869;28;20081;-73
2021/12/23 09:06:51;;;;;;;34.55;19.23;;;;;;;-0.80;90.86;101099.44;5091487;28;20059;-72
2021/12/23 09:09:17;;;;;;;39.10;20.73;;;;;;;-0.75;90.62;101101.69;5091228;28;20473;-73
2021/12/23 09:11:44;;;;;;;41.70;21.23;;;;;;;-0.69;90.88;101102.06;5090972;28;20111;-72
2021/12/23 09:14:10;;;;;;;40.17;22.17;;;;;;;-0.65;90.28;101109.69;5091272;28;20016;-72
2021/12/23 09:16:35;;;;;;;36.97;20.58;;;;;;;-0.64;90.25;101098.25;5091520;28;20122;-72
2021/12/23 09:19:02;;;;;;;32.67;18.17;;;;;;;-0.56;89.97;101091.47;5091094;28;20020;-72
2021/12/23 09:21:27;;;;;;;36.60;18.60;;;;;;;-0.48;89.95;101096.13;5089580;28;20024;-72
2021/12/23 09:23:53;;;;;;;38.50;19.75;;;;;;;-0.40;89.70;101096.34;5089980;28;20032;-72
2021/12/23 09:26:18;;;;;;;34.53;18.60;;;;;;;-0.35;89.35;101094.22;5091217;28;20024;-72
2021/12/23 09:34:09;;;;;;;34.08;16.95;;;;;;;-0.18;89.24;101092.91;5090785;28;20058;-71
2021/12/23 09:36:36;;;;;;;33.78;19.00;;;;;;;-0.15;89.34;101086.59;5090687;28;20107;-73
2021/12/23 09:39:04;;;;;;;33.63;19.13;;;;;;;-0.18;89.19;101084.19;5090762;28;20024;-73
2021/12/23 09:41:31;;;;;;;34.15;20.42;;;;;;;-0.08;89.22;101088.59;5090644;28;20012;-72
2021/12/23 09:43:58;;;;;;;38.63;21.55;;;;;;;-0.04;88.99;101078.69;5089936;28;20039;-73
2021/12/23 09:46:23;;;;;;;41.15;22.75;;;;;;;0.01;89.28;101078.34;5090444;28;20028;-72
2021/12/23 09:48:50;;;;;;;38.60;19.13;;;;;;;0.03;88.97;101072.00;5090114;28;20465;-74
2021/12/23 09:51:19;;;;;;;34.67;16.75;;;;;;;0.04;88.83;101073.66;5089486;28;20052;-73
2021/12/23 09:53:55;;;;;;;35.13;17.45;;;;;;;0.07;88.72;101057.69;5089993;28;20092;-73
2021/12/23 09:56:20;;;;;;;34.60;17.10;;;;;;;0.09;88.78;101058.41;5090189;28;20034;-73
2021/12/23 09:58:46;;;;;;;37.08;18.60;;;;;;;0.13;88.69;101057.22;5090284;28;20020;-73
2021/12/23 10:01:12;;;;;;;43.47;16.60;;;;;;;0.17;88.91;101047.28;5090377;28;20020;-72
2021/12/23 10:03:39;;;;;;;32.10;15.77;;;;;;;0.13;88.15;101038.84;5090402;28;21346;-73
2021/12/23 10:06:05;;;;;;;39.97;18.48;;;;;;;0.24;88.73;101045.84;5090503;28;20115;-72
2021/12/23 10:08:31;;;;;;;33.50;17.48;;;;;;;0.27;88.52;101044.75;5090033;28;20023;-73
2021/12/23 10:11:10;;;;;;;35.25;16.90;;;;;;;0.27;88.58;101039.50;5089964;28;20020;-71
2021/12/23 10:30:56;;;;;;;32.65;15.95;;;;;;;0.71;88.37;101024.50;5107393;28;20035;-74
2021/12/23 10:38:37;;;;;;;33.38;17.02;;;;;;;0.78;87.97;100987.09;5089275;28;20471;-70
2021/12/23 10:41:16;;;;;;;32.30;15.80;;;;;;;0.80;88.39;100976.47;5088120;28;20023;-71
2021/12/23 10:43:44;;;;;;;30.10;16.55;;;;;;;0.84;88.37;100976.09;5089265;28;20021;-71
2021/12/23 10:46:28;;;;;;;30.67;16.35;;;;;;;0.90;88.34;100963.41;5088824;28;20099;-70
2021/12/23 10:49:05;;;;;;;34.17;15.88;;;;;;;0.97;87.92;100960.13;5088249;28;20039;-71
2021/12/23 10:51:55;;;;;;;34.47;15.15;;;;;;;1.05;87.90;100959.47;5087322;28;20046;-70
2021/12/23 10:58:01;;;;;;;33.20;17.25;;;;;;;1.09;88.22;100953.81;5088119;28;20036;-69
2021/12/23 11:00:16;;;;;;;29.05;15.40;;;;;;;1.20;87.59;100944.16;5089452;28;20042;-73
2021/12/23 11:03:31;;;;;;;32.53;15.25;;;;;;;1.19;87.73;100948.59;5087998;28;20024;-72
2021/12/23 11:06:11;;;;;;;32.60;16.60;;;;;;;1.19;87.19;100945.97;5087896;28;20107;-73
2021/12/23 11:08:51;;;;;;;32.38;17.23;;;;;;;1.17;87.37;100933.94;5089155;28;20024;-74
2021/12/23 11:12:00;;;;;;;29.52;16.33;;;;;;;1.19;87.89;100932.00;5088625;28;20077;-74
2021/12/23 11:41:52;;;;;;;30.25;14.93;;;;;;;1.52;87.80;100868.59;5081001;28;20463;-74
2021/12/23 11:44:17;;;;;;;31.23;14.70;;;;;;;1.62;88.08;100876.47;5092914;28;20059;-74
2021/12/23 11:46:49;;;;;;;29.83;15.38;;;;;;;1.67;87.72;100869.00;5092995;28;20016;-75
2021/12/23 11:49:16;;;;;;;32.42;16.95;;;;;;;1.70;87.61;100850.34;5092985;28;20471;-75
2021/12/23 11:51:51;;;;;;;34.47;16.17;;;;;;;1.81;88.30;100859.88;5092211;28;20044;-74
2021/12/23 11:54:30;;;;;;;33.35;16.00;;;;;;;1.86;87.87;100847.16;5095502;28;20020;-73
2021/12/23 11:57:24;;;;;;;34.25;16.90;;;;;;;1.99;87.59;100844.19;5097032;28;20027;-74
2021/12/23 12:00:19;;;;;;;37.33;17.15;;;;;;;2.05;87.75;100829.69;5094677;28;20028;-75
2021/12/23 12:02:58;;;;;;;31.50;16.48;;;;;;;2.05;87.36;100821.78;5096705;28;20028;-74
2021/12/23 12:05:23;;;;;;;32.28;19.00;;;;;;;2.12;87.82;100815.81;5096718;28;20532;-74
2021/12/23 12:08:08;;;;;;;31.08;14.23;;;;;;;2.18;87.44;100820.50;5096009;28;20024;-73
2021/12/23 12:10:34;;;;;;;29.58;15.15;;;;;;;2.26;86.67;100814.53;5096793;28;20020;-75
2021/12/23 12:13:04;;;;;;;32.53;16.33;;;;;;;2.36;87.66;100804.78;5096830;28;20056;-73